Latest Weather Observations for Nullarbor

IDS60801

Issued at 7:35 pm CST Thursday 21 August 2014 (issued every 30 minutes, with the page automatically refreshed every 10 minutes)

About weather observations | Map of weather stations | Latest weather observations for SA | Other Formats
Station Details ID: 018106 Name: NULLARBOR Lat: -31.45 Lon: 130.90 Height: 64.0 m
Data from the previous 72 hours. | See also: Recent months at Nullarbor
Date/Time
CST
Temp
°C
App
Temp
°C
Dew
Point
Rel
Hum
%
Delta-T
°C
Wind Press
QNH
hPa
Press
MSL
hPa
Rain
since 9 am
mm
Dir
 
Spd
km/h
Gust
km/h
Spd
kts
Gust
kts
21/07:30pm 15.7 10.0 -0.9 32 6.9 ENE 19 20 10 11 1017.6 1017.6 0.0
21/07:00pm 17.0 11.6 -1.6 28 7.7 ENE 17 19 9 10 1017.4 1017.4 0.0
21/06:30pm 20.6 15.1 -1.8 22 9.6 NE 17 19 9 10 1017.1 1017.1 0.0
21/06:00pm 23.2 16.7 -2.4 18 11.1 NNE 22 32 12 17 1016.7 1016.7 0.0
21/05:30pm 24.3 16.7 -2.3 17 11.7 NNE 28 41 15 22 1016.3 1016.3 0.0
21/05:00pm 24.9 17.6 -2.6 16 12.1 NNE 26 35 14 19 1016.0 1016.0 0.0
21/04:30pm 25.0 17.0 -2.5 16 12.1 NE 30 39 16 21 1015.8 1015.8 0.0
21/04:00pm 24.9 16.5 -2.6 16 12.1 NE 32 43 17 23 1015.7 1015.7 0.0
21/03:30pm 25.5 17.5 -2.1 16 12.3 NNE 30 48 16 26 1015.9 1015.9 0.0
21/03:27pm 25.1 17.1 -2.5 16 12.2 NNE 30 48 16 26 1015.9 1015.9 0.0
21/03:00pm 25.1 16.8 -1.6 17 11.9 NE 32 41 17 22 1016.2 1016.2 0.0
21/02:30pm 24.5 16.1 -2.1 17 11.7 NE 32 43 17 23 1016.6 1016.6 0.0
21/02:00pm 24.0 15.1 -1.8 18 11.4 NE 35 52 19 28 1016.9 1016.9 0.0
21/01:59pm 24.0 15.5 -1.8 18 11.4 NE 33 52 18 28 1016.8 1016.8 0.0
21/01:30pm 23.7 14.9 -1.3 19 11.1 NE 35 46 19 25 1017.5 1017.5 0.0
21/01:00pm 23.4 15.2 -0.8 20 10.9 NE 32 41 17 22 1018.3 1018.3 0.0
21/12:30pm 22.5 13.7 -0.9 21 10.4 NE 35 46 19 25 1018.9 1018.9 0.0
21/12:00pm 21.7 13.3 -0.9 22 9.9 NNE 33 44 18 24 1019.4 1019.4 0.0
21/11:30am 20.7 12.1 0.0 25 9.2 NNE 35 46 19 25 1020.0 1020.1 0.0
21/11:00am 19.4 10.7 -0.6 26 8.7 NNE 35 44 19 24 1020.5 1020.6 0.0
21/10:30am 18.1 9.4 -0.2 29 7.9 NNE 35 46 19 25 1020.8 1020.9 0.0
21/10:00am 16.7 7.7 -0.1 32 7.2 NNE 37 50 20 27 1021.1 1021.2 0.0
21/09:30am 14.8 6.8 0.6 38 6.1 NNE 32 43 17 23 1021.3 1021.4 0.0
21/09:00am 12.8 4.8 0.5 43 5.1 NE 32 39 17 21 1021.5 1021.6 0.0
21/08:30am 10.9 4.5 0.9 50 4.1 NE 24 33 13 18 1021.4 1021.5 0.0
21/08:00am 8.2 1.7 0.4 58 3.1 NE 24 30 13 16 1021.2 1021.3 0.0
21/07:30am 6.5 0.7 0.2 64 2.4 NE 20 26 11 14 1021.1 1021.2 0.0
21/07:00am 6.2 0.6 0.1 65 2.4 NE 19 22 10 12 1021.0 1021.1 0.0
21/06:30am 6.1 0.3 0.2 66 2.3 NE 20 24 11 13 1020.7 1020.8 0.0
21/06:00am 5.6 -0.1 0.6 70 1.9 NE 20 24 11 13 1020.6 1020.7 0.0
21/05:30am 5.9 0.3 0.9 70 2.0 NE 20 24 11 13 1020.6 1020.7 0.0
21/05:00am 6.3 0.7 1.4 71 2.0 NE 20 24 11 13 1020.5 1020.6 0.0
21/04:30am 5.7 0.4 1.6 75 1.6 NE 19 22 10 12 1020.3 1020.4 0.0
21/04:00am 4.9 -0.4 1.9 81 1.2 NE 19 22 10 12 1020.4 1020.5 0.0
21/03:30am 4.8 -0.1 1.8 81 1.2 ENE 17 17 9 9 1020.4 1020.5 0.0
21/03:00am 5.1 0.6 2.1 81 1.2 ENE 15 17 8 9 1020.7 1020.8 0.0
21/02:30am 5.8 1.0 2.4 79 1.4 ENE 17 17 9 9 1020.8 1020.9 0.0
21/02:00am 7.1 2.4 3.0 75 1.7 E 17 19 9 10 1021.0 1021.1 0.0
21/01:30am 7.5 2.5 3.4 75 1.7 E 19 22 10 12 1021.0 1021.1 0.0
21/01:00am 7.0 2.3 3.4 78 1.5 E 17 19 9 10 1021.1 1021.2 0.0
21/12:30am 7.1 2.5 3.7 79 1.4 E 17 19 9 10 1021.2 1021.3 0.0
21/12:00am 7.8 3.6 3.8 76 1.7 E 15 17 8 9 1021.3 1021.4 0.0
 
Date/Time
CST
Temp
°C
App
Temp
°C
Dew
Point
Rel
Hum
%
Delta-T
°C
Wind Press
QNH
hPa
Press
MSL
hPa
Rain
since 9 am
mm
Dir
 
Spd
km/h
Gust
km/h
Spd
kts
Gust
kts
20/11:30pm 8.6 4.5 4.2 74 1.9 E 15 17 8 9 1021.6 1021.7 0.0
20/11:00pm 9.7 5.3 4.5 70 2.3 E 17 19 9 10 1021.7 1021.8 0.0
20/10:30pm 10.3 5.5 4.7 68 2.5 E 19 22 10 12 1021.7 1021.8 0.0
20/10:00pm 11.3 6.5 5.8 69 2.6 E 20 24 11 13 1021.7 1021.8 0.0
20/09:30pm 12.3 7.3 6.6 68 2.7 E 22 28 12 15 1021.8 1021.9 0.0
20/09:00pm 13.3 8.4 8.4 72 2.4 ESE 24 30 13 16 1021.5 1021.6 0.0
20/08:30pm 13.3 9.6 10.3 82 1.6 ESE 20 26 11 14 1021.5 1021.6 0.0
20/08:00pm 13.4 9.3 10.0 80 1.8 ESE 22 30 12 16 1021.3 1021.4 0.0
20/07:30pm 13.6 8.9 9.3 75 2.2 ESE 24 33 13 18 1021.1 1021.2 0.0
20/07:00pm 14.0 8.9 9.2 73 2.5 ESE 26 33 14 18 1020.9 1021.0 0.0
20/06:30pm 14.5 9.4 9.1 70 2.8 ESE 26 33 14 18 1020.8 1020.9 0.0
20/06:00pm 15.7 9.1 8.4 62 3.7 ESE 33 43 18 23 1020.5 1020.6 0.0
20/05:30pm 17.7 10.0 3.6 39 6.6 SE 33 43 18 23 1020.1 1020.2 0.0
20/05:00pm 19.1 11.3 1.6 31 7.9 SE 32 39 17 21 1019.9 1020.0 0.0
20/04:30pm 20.5 13.4 1.4 28 8.7 SE 28 35 15 19 1019.7 1019.8 0.0
20/04:19pm 20.3 13.2 1.2 28 8.7 SE 28 35 15 19 1019.7 1019.8 0.0
20/04:00pm 21.8 17.5 -1.5 21 10.2 NNE 11 17 6 9 1019.8 1019.9 0.0
20/03:30pm 21.9 17.6 -1.4 21 10.2 NNE 11 28 6 15 1019.8 1019.9 0.0
20/03:00pm 22.0 17.8 -0.7 22 10.1 NE 11 24 6 13 1019.9 1020.0 0.0
20/02:30pm 22.2 17.6 -1.1 21 10.3 N 13 24 7 13 1020.0 1020.1 0.0
20/02:00pm 22.1 17.6 0.0 23 10.0 NE 13 20 7 11 1020.4 1020.5 0.0
20/01:30pm 21.8 17.0 0.4 24 9.7 NE 15 26 8 14 1020.8 1020.9 0.0
20/01:00pm 21.3 16.0 -0.6 23 9.7 NE 17 28 9 15 1021.4 1021.5 0.0
20/12:30pm 20.8 14.3 0.6 26 9.1 NE 24 33 13 18 1021.9 1022.0 0.0
20/12:00pm 20.1 13.3 1.0 28 8.6 NNE 26 33 14 18 1022.4 1022.5 0.0
20/11:30am 19.9 12.9 1.8 30 8.3 NNE 28 35 15 19 1022.7 1022.8 0.0
20/11:00am 18.5 10.7 1.5 32 7.7 NNE 32 39 17 21 1023.1 1023.1 0.0
20/10:30am 17.4 9.6 1.4 34 7.1 NNE 32 41 17 22 1023.4 1023.4 0.0
20/10:00am 15.8 8.5 2.2 40 6.1 NNE 30 37 16 20 1023.6 1023.6 0.0
20/09:30am 14.5 7.2 2.4 44 5.3 NNE 30 37 16 20 1023.8 1023.8 0.0
20/09:00am 11.8 5.6 2.3 52 4.1 NNE 24 32 13 17 1023.8 1023.8 0.0
20/08:30am 9.5 3.8 2.6 62 2.9 NNE 22 28 12 15 1023.7 1023.7 0.0
20/08:00am 7.3 2.1 2.2 70 2.1 NNE 19 22 10 12 1023.3 1023.3 0.0
20/07:30am 6.7 1.3 2.2 73 1.8 NNE 20 24 11 13 1022.8 1022.9 0.0
20/07:00am 6.7 1.3 2.6 75 1.7 NNE 20 24 11 13 1022.5 1022.6 0.0
20/06:30am 7.1 1.5 3.2 76 1.6 NNE 22 28 12 15 1022.3 1022.4 0.0
20/06:00am 7.4 1.8 3.6 77 1.6 NE 22 26 12 14 1022.1 1022.2 0.0
20/05:30am 7.6 2.5 4.0 78 1.6 NE 20 28 11 15 1021.9 1022.0 0.0
20/05:00am 6.4 1.5 3.9 84 1.1 NE 19 20 10 11 1021.8 1021.9 0.0
20/04:30am 7.2 2.7 4.2 81 1.3 NE 17 20 9 11 1021.8 1021.9 0.0
20/04:00am 7.5 2.5 4.6 82 1.3 NE 20 24 11 13 1021.5 1021.6 0.0
20/03:30am 6.9 2.0 4.2 83 1.2 NE 19 20 10 11 1021.5 1021.6 0.0
20/03:00am 6.3 1.7 3.6 83 1.1 ENE 17 19 9 10 1021.7 1021.8 0.0
20/02:30am 7.0 2.5 4.0 81 1.3 E 17 19 9 10 1021.8 1021.9 0.0
20/02:00am 7.3 2.8 4.1 80 1.4 E 17 19 9 10 1022.1 1022.2 0.0
20/01:30am 8.5 4.0 4.3 75 1.8 E 17 19 9 10 1022.3 1022.4 0.0
20/01:00am 10.0 5.1 5.0 71 2.3 E 20 24 11 13 1022.3 1022.4 0.0
20/12:30am 11.2 5.2 5.1 66 2.8 E 26 32 14 17 1022.3 1022.4 0.0
20/12:00am 11.1 5.3 4.6 64 2.9 E 24 32 13 17 1022.5 1022.6 0.0
 
Date/Time
CST
Temp
°C
App
Temp
°C
Dew
Point
Rel
Hum
%
Delta-T
°C
Wind Press
QNH
hPa
Press
MSL
hPa
Rain
since 9 am
mm
Dir
 
Spd
km/h
Gust
km/h
Spd
kts
Gust
kts
19/11:30pm 11.0 4.8 4.2 63 3.0 E 26 32 14 17 1022.6 1022.7 0.0
19/11:00pm 11.3 5.4 4.1 61 3.2 E 24 32 13 17 1022.8 1022.9 0.0
19/10:30pm 11.6 5.8 4.3 61 3.3 E 24 35 13 19 1022.9 1023.0 0.0
19/10:00pm 11.9 6.3 5.3 64 3.1 E 24 30 13 16 1023.1 1023.1 0.0
19/09:30pm 12.6 7.8 7.3 70 2.6 E 22 30 12 16 1023.1 1023.1 0.0
19/09:00pm 13.1 8.6 8.4 73 2.3 ESE 22 28 12 15 1023.1 1023.1 0.0
19/08:30pm 13.1 9.2 9.4 78 1.9 ESE 20 30 11 16 1022.9 1023.0 0.0
19/08:00pm 13.0 8.6 9.1 77 2.0 ESE 22 28 12 15 1022.6 1022.7 0.0
19/07:30pm 13.1 8.8 9.5 79 1.8 ESE 22 30 12 16 1022.3 1022.4 0.0
19/07:00pm 13.3 8.9 10.5 83 1.5 ESE 24 28 13 15 1022.0 1022.1 0.0
19/06:30pm 13.8 8.9 10.0 78 2.0 ESE 26 32 14 17 1021.6 1021.7 0.0
19/06:00pm 14.8 9.5 9.8 72 2.6 ESE 28 35 15 19 1021.3 1021.4 0.0
19/05:30pm 16.1 9.9 9.3 64 3.5 ESE 32 39 17 21 1021.2 1021.3 0.0
19/05:00pm 17.1 11.1 8.8 58 4.3 ESE 30 37 16 20 1020.9 1021.0 0.0
19/04:30pm 18.1 11.8 7.2 49 5.5 SE 30 39 16 21 1020.9 1021.0 0.0
19/04:00pm 20.6 14.4 2.4 30 8.5 ESE 24 30 13 16 1020.8 1020.9 0.0
19/03:30pm 21.9 17.0 -0.8 22 10.0 NNE 15 20 8 11 1021.0 1021.1 0.0
19/03:00pm 21.8 17.3 -0.2 23 9.8 ENE 13 20 7 11 1021.2 1021.3 0.0
19/02:30pm 21.9 17.4 -0.1 23 9.8 N 13 24 7 13 1021.3 1021.4 0.0
19/02:00pm 21.3 16.2 0.5 25 9.4 NNE 17 30 9 16 1021.6 1021.7 0.0
19/01:30pm 20.3 15.5 0.2 26 8.9 NE 15 26 8 14 1022.0 1022.1 0.0
19/01:00pm 21.5 16.3 2.2 28 9.0 N 19 22 10 12 1022.6 1022.7 0.0
19/12:30pm 20.3 15.0 1.7 29 8.5 N 19 33 10 18 1023.3 1023.3 0.0
19/12:00pm 19.6 14.2 2.5 32 7.9 NNE 20 32 11 17 1023.7 1023.7 0.0
19/11:30am 18.7 13.0 2.9 35 7.3 N 22 30 12 16 1024.1 1024.1 0.0
19/11:00am 17.4 12.2 3.3 39 6.5 NNE 20 28 11 15 1024.3 1024.3 0.0
19/10:30am 16.0 11.0 4.7 47 5.3 NNE 20 28 11 15 1024.7 1024.7 0.0
19/10:00am 14.2 9.2 4.8 53 4.4 NNE 20 28 11 15 1024.8 - 0.0
19/09:30am 12.3 7.4 5.2 62 3.3 NE 20 24 11 13 1025.0 1025.0 0.0
19/09:00am 10.9 6.4 7.0 77 1.8 NE 20 24 11 13 1025.0 1025.0 0.2
19/08:30am 8.4 4.5 6.9 90 0.7 NE 17 20 9 11 1024.7 1024.7 0.2
19/08:00am 6.6 3.2 6.0 96 0.3 NE 13 17 7 9 1024.5 - 0.2
19/07:30am 5.6 1.9 4.7 94 0.4 NE 13 13 7 7 1024.4 1024.4 0.2
19/07:00am 7.3 3.2 6.4 94 0.4 ENE 17 20 9 11 1024.1 - 0.2
19/06:30am 7.5 3.1 6.6 94 0.4 ENE 19 22 10 12 1023.7 1023.7 0.2
19/06:00am 7.1 2.6 6.2 94 0.4 ENE 19 20 10 11 1023.4 1023.4 0.2
19/05:30am 7.4 3.0 6.5 94 0.4 ENE 19 20 10 11 1023.5 1023.5 0.2
19/05:00am 8.0 3.7 6.8 92 0.6 ENE 19 22 10 12 1023.5 - 0.2
19/04:30am 8.0 3.6 6.5 90 0.7 NE 19 22 10 12 1023.5 1023.5 0.2
19/04:00am 8.3 3.9 6.6 89 0.8 NE 19 24 10 13 1023.6 - 0.2
19/03:30am 8.3 3.8 6.8 90 0.7 ENE 20 24 11 13 1023.6 1023.6 0.2
19/03:00am 8.0 3.5 6.8 92 0.6 ENE 20 24 11 13 1023.8 1023.8 0.2
19/02:30am 6.1 1.7 4.6 90 0.6 ENE 17 20 9 11 1024.1 1024.1 0.2
19/02:00am 6.0 1.8 3.7 85 1.0 ENE 15 17 8 9 1024.2 - 0.2
19/01:30am 6.5 1.9 3.7 82 1.2 E 17 19 9 10 1024.6 1024.6 0.2
19/01:00am 7.5 3.0 4.3 80 1.4 E 17 20 9 11 1024.7 - 0.2
19/12:30am 7.3 3.2 4.1 80 1.4 E 15 17 8 9 1025.0 1025.0 0.2
19/12:00am 7.6 3.4 3.8 77 1.6 E 15 17 8 9 1025.1 1025.1 0.2
 
Date/Time
CST
Temp
°C
App
Temp
°C
Dew
Point
Rel
Hum
%
Delta-T
°C
Wind Press
QNH
hPa
Press
MSL
hPa
Rain
since 9 am
mm
Dir
 
Spd
km/h
Gust
km/h
Spd
kts
Gust
kts
18/11:30pm 8.7 4.6 4.1 73 2.0 E 15 19 8 10 1025.3 1025.3 0.2
18/11:00pm 8.7 4.6 4.1 73 2.0 E 15 17 8 9 1025.4 - 0.2
18/10:30pm 8.8 4.7 4.6 75 1.9 E 15 19 8 10 1025.3 1025.3 0.2
18/10:00pm 8.9 5.1 5.8 81 1.4 E 15 17 8 9 1025.2 - 0.2
18/09:30pm 9.7 5.5 5.9 77 1.7 E 17 20 9 11 1025.2 1025.2 0.2
18/09:00pm 10.6 6.5 6.4 75 2.0 ESE 17 19 9 10 1025.0 1025.0 0.2
18/08:30pm 11.3 7.0 7.0 75 2.0 ESE 19 20 10 11 1024.8 1024.8 0.2
18/08:00pm 11.3 7.3 6.8 74 2.1 ESE 17 20 9 11 1024.5 - 0.2

Other Formats:

Comma delimited format used in spreadsheet applications
http://www.bom.gov.au/fwo/IDS60801/IDS60801.94651.axf

JavaScript Object Notation format (JSON) in row-major order
http://www.bom.gov.au/fwo/IDS60801/IDS60801.94651.json